Time;durP1;ratioP1;P1;durP2;ratioP2;P2;SDS_P1;SDS_P2;PMS_P1;PMS_P2;Temp;Humidity;BMP_temperature;BMP_pressure;BME280_temperature;BME280_humidity;BME280_pressure;Samples;Min_cycle;Max_cycle;Signal;HPM_P1;HPM_P2
2023/01/27 00:00:29;;;;;;;11.32;4.90;;;-1.20;99.90;;;;;;10209737;23;20451;-82
2023/01/27 00:04:29;;;;;;;3.67;2.60;;;-1.20;99.90;;;;;;10211790;23;20001;-81
2023/01/27 00:08:30;;;;;;;11.27;5.47;;;-1.20;99.90;;;;;;10212565;23;20009;-82
2023/01/27 00:16:51;;;;;;;4.15;3.30;;;-1.30;99.90;;;;;;10238566;23;20083;-82
2023/01/27 00:25:11;;;;;;;6.30;1.70;;;-1.30;99.90;;;;;;10238474;23;20031;-82
2023/01/27 00:29:12;;;;;;;2.38;0.93;;;-1.40;99.90;;;;;;10212158;23;20244;-82
2023/01/27 00:33:27;;;;;;;2.22;1.98;;;-1.40;99.90;;;;;;10239464;23;20001;-81
2023/01/27 00:37:28;;;;;;;4.97;2.10;;;-1.40;99.90;;;;;;10238460;23;20003;-82
2023/01/27 00:41:28;;;;;;;13.65;4.97;;;-1.40;99.90;;;;;;10212082;23;20005;-81
2023/01/27 00:45:47;;;;;;;8.98;2.60;;;-1.40;99.90;;;;;;10237455;23;20005;-81
2023/01/27 00:49:48;;;;;;;9.20;4.07;;;-1.30;99.90;;;;;;10210916;23;20044;-81
2023/01/27 00:53:48;;;;;;;1.70;1.55;;;-1.30;99.90;;;;;;10211872;23;20019;-82
2023/01/27 00:57:49;;;;;;;9.82;6.22;;;-1.20;99.90;;;;;;10238280;23;20012;-81
2023/01/27 01:01:49;;;;;;;4.20;2.00;;;-1.20;99.90;;;;;;10211248;23;20009;-81
2023/01/27 01:05:50;;;;;;;5.03;2.03;;;-1.30;99.90;;;;;;10237341;23;20005;-81
2023/01/27 01:09:51;;;;;;;3.58;1.75;;;-1.30;99.90;;;;;;10211017;23;20466;-81
2023/01/27 01:13:51;;;;;;;4.15;2.33;;;-1.40;99.90;;;;;;10210825;23;20020;-82
2023/01/27 01:17:52;;;;;;;9.18;4.57;;;-1.30;99.90;;;;;;10210705;23;20005;-81
2023/01/27 01:21:52;;;;;;;12.13;4.50;;;-1.40;99.90;;;;;;10210500;23;20008;-81
2023/01/27 01:25:54;;;;;;;6.93;4.70;;;-1.40;99.90;;;;;;10210899;23;19997;-81
2023/01/27 01:29:55;;;;;;;12.98;4.63;;;-1.30;99.90;;;;;;10210957;23;20020;-81
2023/01/27 01:33:55;;;;;;;16.15;4.10;;;-1.30;99.90;;;;;;10211260;23;20005;-81
2023/01/27 01:37:56;;;;;;;3.67;1.20;;;-1.30;99.90;;;;;;10211140;23;20036;-81
2023/01/27 01:41:57;;;;;;;2.05;1.92;;;-1.30;99.90;;;;;;10211344;23;20005;-81
2023/01/27 01:45:59;;;;;;;2.05;0.98;;;-1.40;99.90;;;;;;10211136;23;20009;-81
2023/01/27 01:49:59;;;;;;;0.52;0.52;;;-1.30;99.90;;;;;;10236098;23;20076;-81
2023/01/27 01:54:09;;;;;;;5.18;3.42;;;-1.30;99.90;;;;;;10209885;23;20016;-81
2023/01/27 01:58:11;;;;;;;12.18;4.82;;;-1.30;99.90;;;;;;10209843;23;20031;-81
2023/01/27 02:02:16;;;;;;;2.25;2.15;;;-1.30;99.90;;;;;;10211830;23;20009;-82
2023/01/27 02:06:16;;;;;;;7.85;4.25;;;-1.30;99.90;;;;;;10236859;23;20009;-81
2023/01/27 02:10:17;;;;;;;9.32;3.20;;;-1.30;99.90;;;;;;10212587;23;20084;-81
2023/01/27 02:14:18;;;;;;;6.47;1.90;;;-1.30;99.90;;;;;;10214227;23;20005;-81
2023/01/27 02:18:19;;;;;;;1.75;0.85;;;-1.40;99.90;;;;;;10239166;23;20440;-81
2023/01/27 02:22:50;;;;;;;2.20;1.63;;;-1.30;99.90;;;;;;10213983;23;20005;-81
2023/01/27 02:26:51;;;;;;;9.82;3.72;;;-1.40;99.90;;;;;;10241036;23;19997;-81
2023/01/27 02:30:51;;;;;;;7.95;4.22;;;-1.50;99.90;;;;;;10239244;23;20076;-81
2023/01/27 02:34:54;;;;;;;7.38;2.78;;;-1.50;99.90;;;;;;10212963;23;20005;-81
2023/01/27 02:38:56;;;;;;;6.93;3.45;;;-1.60;99.90;;;;;;10212554;23;20009;-81
2023/01/27 02:42:57;;;;;;;9.55;4.72;;;-1.50;99.90;;;;;;10213041;23;20016;-81
2023/01/27 02:46:57;;;;;;;6.65;3.13;;;-1.50;99.90;;;;;;10212866;23;19997;-81
2023/01/27 02:50:58;;;;;;;5.43;3.05;;;-1.40;99.90;;;;;;10213229;23;20009;-81
2023/01/27 02:54:59;;;;;;;7.00;2.22;;;-1.50;99.90;;;;;;10239646;23;20016;-81
2023/01/27 02:58:59;;;;;;;4.28;1.35;;;-1.60;99.90;;;;;;10239132;23;20452;-81
2023/01/27 03:03:00;;;;;;;9.20;4.50;;;-1.60;99.90;;;;;;10213972;23;20001;-82
2023/01/27 03:07:00;;;;;;;1.40;1.30;;;-1.50;99.90;;;;;;10213024;23;20064;-81
2023/01/27 03:11:01;;;;;;;5.10;3.33;;;-1.50;99.90;;;;;;10213003;23;20067;-81
2023/01/27 03:19:20;;;;;;;1.60;1.00;;;-1.60;99.90;;;;;;10239761;23;20016;-82
2023/01/27 03:23:21;;;;;;;5.43;2.05;;;-1.60;99.90;;;;;;10239452;23;20458;-81
2023/01/27 03:27:21;;;;;;;6.18;2.50;;;-1.60;99.90;;;;;;10213557;23;20464;-81
2023/01/27 03:31:22;;;;;;;1.98;1.23;;;-1.60;99.90;;;;;;10240351;23;20440;-81
2023/01/27 03:35:22;;;;;;;4.75;1.95;;;-1.60;99.90;;;;;;10213690;23;20096;-82
2023/01/27 03:48:01;;;;;;;3.70;1.23;;;-1.60;99.90;;;;;;10238611;23;20591;-81
2023/01/27 03:52:02;;;;;;;6.78;3.33;;;-1.60;99.90;;;;;;10211331;23;20005;-81
2023/01/27 03:56:04;;;;;;;8.45;3.38;;;-1.60;99.90;;;;;;10212400;23;20013;-82
2023/01/27 04:00:05;;;;;;;6.55;2.95;;;-1.60;99.90;;;;;;10212509;23;20048;-81
2023/01/27 04:08:26;;;;;;;10.00;4.60;;;-1.60;99.90;;;;;;10239118;23;20016;-80
2023/01/27 04:12:27;;;;;;;5.57;2.30;;;-1.60;99.90;;;;;;10212489;23;20013;-81
2023/01/27 04:16:29;;;;;;;11.50;5.03;;;-1.50;99.90;;;;;;10211952;23;20009;-80
2023/01/27 04:20:29;;;;;;;0.77;0.77;;;-1.50;99.90;;;;;;10211911;23;20009;-80
2023/01/27 04:24:30;;;;;;;8.07;4.22;;;-1.40;99.90;;;;;;10211464;23;20009;-81
2023/01/27 04:28:31;;;;;;;10.68;2.95;;;-1.40;99.90;;;;;;10210887;23;20470;-80
2023/01/27 04:32:31;;;;;;;2.40;1.45;;;-1.40;99.90;;;;;;10211382;23;20458;-81
2023/01/27 04:36:32;;;;;;;6.25;2.95;;;-1.30;99.90;;;;;;10238097;23;20005;-81
2023/01/27 04:40:32;;;;;;;7.78;3.70;;;-1.30;99.90;;;;;;10211676;23;20005;-80
2023/01/27 04:44:33;;;;;;;3.03;1.73;;;-1.30;99.90;;;;;;10212257;23;20092;-80
2023/01/27 04:48:33;;;;;;;5.00;2.35;;;-1.40;99.90;;;;;;10239744;23;20368;-81
2023/01/27 04:52:34;;;;;;;0.43;0.43;;;-1.30;99.90;;;;;;10212763;23;20019;-80
2023/01/27 04:56:38;;;;;;;7.47;3.50;;;-1.30;99.90;;;;;;10211687;23;20643;-80
2023/01/27 05:00:39;;;;;;;5.35;2.55;;;-1.50;99.90;;;;;;10211485;23;20064;-80
2023/01/27 05:04:39;;;;;;;5.38;2.33;;;-1.40;99.90;;;;;;10210824;23;20009;-80
2023/01/27 05:08:40;;;;;;;5.05;2.97;;;-1.40;99.90;;;;;;10210734;23;20471;-80
2023/01/27 05:12:40;;;;;;;4.68;2.40;;;-1.50;99.90;;;;;;10211649;23;20100;-80
2023/01/27 05:16:41;;;;;;;3.15;2.33;;;-1.50;99.90;;;;;;10211035;23;20068;-80
2023/01/27 05:20:41;;;;;;;5.60;3.03;;;-1.50;99.90;;;;;;10210154;23;20012;-81
2023/01/27 05:24:42;;;;;;;5.25;2.55;;;-1.50;99.90;;;;;;10212928;23;20005;-80
2023/01/27 05:28:44;;;;;;;9.35;2.47;;;-1.50;99.90;;;;;;10212090;23;20108;-81
2023/01/27 05:32:45;;;;;;;2.63;1.77;;;-1.60;99.90;;;;;;10212420;23;20013;-81
2023/01/27 05:36:46;;;;;;;4.43;2.20;;;-1.50;99.90;;;;;;10208778;23;20009;-80
2023/01/27 05:40:47;;;;;;;4.07;2.10;;;-1.50;99.90;;;;;;10210820;23;20033;-81
2023/01/27 05:44:47;;;;;;;2.97;1.60;;;-1.60;99.90;;;;;;10212113;23;20001;-81
2023/01/27 05:48:50;;;;;;;1.95;0.80;;;-1.50;99.90;;;;;;10212788;23;20005;-80
2023/01/27 05:52:51;;;;;;;5.45;2.60;;;-1.50;99.90;;;;;;10212038;23;20009;-81
2023/01/27 05:56:51;;;;;;;4.90;1.95;;;-1.60;99.90;;;;;;10213049;23;20013;-81
2023/01/27 06:00:54;;;;;;;8.55;3.60;;;-1.60;99.90;;;;;;10209860;23;20467;-81
2023/01/27 06:04:54;;;;;;;5.65;2.55;;;-1.60;99.90;;;;;;10212492;23;20009;-80
2023/01/27 06:08:55;;;;;;;3.95;1.92;;;-1.60;99.90;;;;;;10212339;23;20131;-81
2023/01/27 06:12:57;;;;;;;2.22;1.35;;;-1.50;99.90;;;;;;10214603;23;20005;-81
2023/01/27 06:16:59;;;;;;;9.73;3.45;;;-1.40;99.90;;;;;;10217662;23;20408;-81
2023/01/27 06:21:01;;;;;;;7.50;3.33;;;-1.50;99.90;;;;;;10243740;23;20001;-81
2023/01/27 06:25:02;;;;;;;1.77;1.13;;;-1.50;99.90;;;;;;10214589;23;20009;-80
2023/01/27 06:29:02;;;;;;;4.22;0.82;;;-1.50;99.90;;;;;;10214643;23;20313;-80
2023/01/27 06:33:03;;;;;;;7.07;3.40;;;-1.50;99.90;;;;;;10212966;23;20009;-80
2023/01/27 06:37:04;;;;;;;5.88;2.92;;;-1.50;99.90;;;;;;10214286;23;20321;-81
2023/01/27 06:41:04;;;;;;;8.00;3.00;;;-1.40;99.90;;;;;;10241641;23;20001;-81
2023/01/27 06:45:05;;;;;;;8.32;3.92;;;-1.30;99.90;;;;;;10240010;23;20012;-80
2023/01/27 06:49:06;;;;;;;7.90;2.90;;;-1.40;99.90;;;;;;10212588;23;20016;-81
2023/01/27 06:53:07;;;;;;;3.97;1.13;;;-1.30;99.90;;;;;;10215583;23;20463;-80
2023/01/27 06:57:08;;;;;;;7.82;3.03;;;-1.40;99.90;;;;;;10211113;23;20012;-81
2023/01/27 07:01:09;;;;;;;1.45;0.90;;;-1.40;99.90;;;;;;10213659;23;20379;-80
2023/01/27 07:05:10;;;;;;;8.13;2.58;;;-1.30;99.90;;;;;;10238784;23;20017;-80
2023/01/27 07:09:11;;;;;;;3.13;1.75;;;-1.30;99.90;;;;;;10213660;23;20009;-79
2023/01/27 07:13:13;;;;;;;2.83;1.38;;;-1.30;99.90;;;;;;10215140;23;20020;-79
2023/01/27 07:17:13;;;;;;;3.97;2.35;;;-1.30;99.90;;;;;;10212783;23;20005;-80
2023/01/27 07:21:14;;;;;;;6.00;4.00;;;-1.30;99.90;;;;;;10215380;23;20371;-80
2023/01/27 07:25:14;;;;;;;8.65;3.33;;;-1.30;99.90;;;;;;10214604;23;20076;-80
2023/01/27 07:29:15;;;;;;;7.43;3.30;;;-1.40;99.90;;;;;;10214448;23;20035;-81
2023/01/27 07:33:15;;;;;;;11.95;4.38;;;-1.50;99.90;;;;;;10240822;23;20340;-81
2023/01/27 07:37:16;;;;;;;10.63;4.25;;;-1.50;99.90;;;;;;10242958;23;20001;-80
2023/01/27 07:41:16;;;;;;;7.63;3.15;;;-1.40;99.90;;;;;;10214144;23;20036;-80
2023/01/27 07:45:17;;;;;;;9.57;4.20;;;-1.50;99.90;;;;;;10214114;23;20019;-80
2023/01/27 07:49:18;;;;;;;5.15;2.58;;;-1.50;99.90;;;;;;10216178;23;20016;-81
2023/01/27 07:53:18;;;;;;;3.22;1.30;;;-1.50;99.90;;;;;;10214514;23;20009;-80
2023/01/27 07:57:19;;;;;;;4.22;1.17;;;-1.40;99.90;;;;;;10214850;23;20451;-81
2023/01/27 08:01:19;;;;;;;7.82;3.28;;;-1.40;99.90;;;;;;10241607;23;20024;-80
2023/01/27 08:05:21;;;;;;;7.43;3.75;;;-1.40;99.90;;;;;;10214588;23;20025;-81
2023/01/27 08:09:22;;;;;;;3.63;2.00;;;-1.30;99.90;;;;;;10214084;23;20013;-81
2023/01/27 08:13:22;;;;;;;6.63;2.92;;;-1.30;99.90;;;;;;10241629;23;20008;-81
2023/01/27 08:17:23;;;;;;;4.25;2.75;;;-1.30;99.90;;;;;;10245830;23;20004;-80
2023/01/27 08:21:24;;;;;;;7.32;3.58;;;-1.20;99.90;;;;;;10217382;23;20016;-81
2023/01/27 08:25:24;;;;;;;1.95;0.63;;;-1.20;99.90;;;;;;10245407;23;20048;-81
2023/01/27 08:29:25;;;;;;;6.60;3.13;;;-1.10;99.90;;;;;;10222400;23;20068;-81
2023/01/27 08:33:25;;;;;;;4.43;2.42;;;-1.20;99.90;;;;;;10217363;23;20009;-80
2023/01/27 08:37:26;;;;;;;10.95;2.78;;;-1.20;99.90;;;;;;10216529;23;20060;-81
2023/01/27 08:41:33;;;;;;;6.72;2.60;;;-1.20;99.90;;;;;;8439256;28;20380;-80
2023/01/27 08:45:34;;;;;;;7.40;3.10;;;-1.30;99.90;;;;;;8424443;28;20028;-79
2023/01/27 08:49:35;;;;;;;1.85;1.45;;;-1.20;99.90;;;;;;8434193;28;20055;-80
2023/01/27 08:53:36;;;;;;;5.80;3.10;;;-1.10;99.90;;;;;;8402037;28;20020;-80
2023/01/27 08:57:36;;;;;;;7.90;2.63;;;-1.20;99.90;;;;;;8398160;28;20017;-80
2023/01/27 09:01:37;;;;;;;3.63;1.73;;;-1.20;99.90;;;;;;8397776;28;20024;-80
2023/01/27 09:05:37;;;;;;;7.18;2.85;;;-1.30;99.90;;;;;;8402602;28;20028;-80
2023/01/27 09:09:38;;;;;;;3.70;2.10;;;-1.30;99.90;;;;;;8397682;28;20032;-80
2023/01/27 09:13:38;;;;;;;6.95;2.75;;;-1.30;99.90;;;;;;8399711;28;20098;-80
2023/01/27 09:17:40;;;;;;;4.82;2.25;;;-1.40;99.90;;;;;;8396634;28;20020;-80
2023/01/27 09:21:40;;;;;;;6.25;3.05;;;-1.40;99.90;;;;;;8399048;28;20066;-80
2023/01/27 09:25:41;;;;;;;2.97;1.38;;;-1.40;99.90;;;;;;8396362;28;20033;-80
2023/01/27 09:29:41;;;;;;;5.38;1.98;;;-1.30;99.90;;;;;;8397701;28;20017;-81
2023/01/27 09:33:42;;;;;;;4.03;2.00;;;-1.20;99.90;;;;;;8397889;28;20108;-79
2023/01/27 09:37:56;;;;;;;2.78;1.23;;;-1.20;99.90;;;;;;8391426;28;20138;-81
2023/01/27 09:42:14;;;;;;;1.15;1.02;;;-1.30;99.90;;;;;;8394399;28;20033;-80
2023/01/27 09:46:40;;;;;;;4.53;2.55;;;-1.30;99.90;;;;;;8394324;28;20027;-80
2023/01/27 09:50:44;;;;;;;2.78;2.50;;;-1.30;99.90;;;;;;8387642;28;20027;-79
2023/01/27 09:55:17;;;;;;;7.78;2.47;;;-1.30;99.90;;;;;;8375790;28;20021;-79
2023/01/27 09:59:30;;;;;;;3.10;1.70;;;-1.40;99.90;;;;;;8375278;28;20035;-81
2023/01/27 10:04:01;;;;;;;4.50;2.45;;;-1.30;99.90;;;;;;8319406;22;20072;-79
2023/01/27 10:08:29;;;;;;;5.20;1.50;;;-1.20;99.90;;;;;;8235829;28;20100;-78
2023/01/27 10:12:54;;;;;;;1.15;0.82;;;-1.20;99.90;;;;;;8254004;28;20034;-78
2023/01/27 10:17:03;;;;;;;3.60;2.42;;;-1.00;99.90;;;;;;8236365;28;20082;-78
2023/01/27 10:21:06;;;;;;;5.32;2.47;;;-1.10;99.90;;;;;;8238652;28;20392;-78
2023/01/27 10:25:25;;;;;;;6.82;2.97;;;-1.10;99.90;;;;;;8230655;28;20582;-79
2023/01/27 10:29:34;;;;;;;4.73;1.40;;;-1.10;99.90;;;;;;8234166;28;20411;-78
2023/01/27 10:33:52;;;;;;;2.57;2.37;;;-1.10;99.90;;;;;;8227652;28;20061;-78
2023/01/27 10:37:55;;;;;;;6.18;2.75;;;-1.10;99.90;;;;;;8233235;28;20027;-78
2023/01/27 10:42:09;;;;;;;9.20;3.63;;;-1.20;99.90;;;;;;8212704;28;20515;-78
2023/01/27 10:46:42;;;;;;;8.18;2.47;;;-1.20;99.90;;;;;;8244173;28;20035;-79
2023/01/27 10:50:49;;;;;;;7.25;3.40;;;-1.20;99.90;;;;;;8206511;28;20099;-78
2023/01/27 10:54:56;;;;;;;3.13;1.90;;;-1.20;99.90;;;;;;8211557;28;20054;-78
2023/01/27 10:59:22;;;;;;;7.00;1.88;;;-1.10;99.90;;;;;;8211209;28;20130;-79
2023/01/27 11:03:26;;;;;;;1.83;1.40;;;-1.00;99.90;;;;;;8217548;28;20062;-79
2023/01/27 11:07:28;;;;;;;5.63;1.73;;;-1.10;99.90;;;;;;8223615;28;20026;-78
2023/01/27 11:11:44;;;;;;;0.15;0.10;;;-1.00;99.90;;;;;;8218551;28;20420;-78
2023/01/27 11:15:44;;;;;;;1.77;0.88;;;-0.90;99.90;;;;;;8242489;28;20109;-79
2023/01/27 11:20:11;;;;;;;1.38;1.02;;;-0.90;99.90;;;;;;8228321;28;20034;-78
2023/01/27 11:24:43;;;;;;;3.17;1.88;;;-0.90;99.90;;;;;;8229970;28;20031;-78
2023/01/27 11:28:53;;;;;;;2.80;1.45;;;-0.80;99.90;;;;;;8240276;28;20026;-78
2023/01/27 11:33:15;;;;;;;10.00;1.95;;;-0.70;99.90;;;;;;8231092;28;20022;-78
2023/01/27 11:37:23;;;;;;;1.10;0.65;;;-0.40;99.90;;;;;;8229415;28;20022;-78
2023/01/27 11:41:24;;;;;;;2.38;1.13;;;-0.30;99.90;;;;;;8225219;28;20023;-78
2023/01/27 11:45:26;;;;;;;4.82;2.33;;;-0.30;99.90;;;;;;8221622;28;20027;-78
2023/01/27 11:49:35;;;;;;;3.78;1.42;;;-0.20;99.90;;;;;;8229358;28;20023;-79
2023/01/27 11:53:39;;;;;;;1.42;1.13;;;-0.10;99.90;;;;;;8207713;28;20109;-78
2023/01/27 11:57:42;;;;;;;5.78;1.40;;;-0.20;99.90;;;;;;8227370;28;20027;-78
2023/01/27 12:01:56;;;;;;;2.08;1.52;;;-0.20;99.90;;;;;;8235693;28;20505;-78
2023/01/27 12:06:03;;;;;;;1.60;1.08;;;-0.30;99.90;;;;;;8217001;28;20407;-78
2023/01/27 12:10:22;;;;;;;8.40;1.60;;;-0.40;99.90;;;;;;8214339;28;20023;-78
2023/01/27 12:14:23;;;;;;;3.58;1.95;;;-0.40;99.90;;;;;;8219241;28;20399;-78
2023/01/27 12:18:24;;;;;;;1.30;0.40;;;-0.30;99.90;;;;;;8228581;28;20026;-78
2023/01/27 12:22:48;;;;;;;2.75;2.25;;;0.00;99.90;;;;;;8227528;28;20027;-78
2023/01/27 12:26:51;;;;;;;1.25;1.15;;;0.00;99.90;;;;;;8222702;28;20081;-78
2023/01/27 12:30:54;;;;;;;4.35;1.67;;;0.00;99.90;;;;;;8227088;28;20057;-79
2023/01/27 12:34:55;;;;;;;2.85;1.60;;;0.00;99.90;;;;;;8225166;28;20031;-78
2023/01/27 12:39:00;;;;;;;0.98;0.38;;;-0.10;99.90;;;;;;8220901;28;20407;-79
2023/01/27 12:43:00;;;;;;;0.80;0.80;;;0.00;99.90;;;;;;8227230;28;20614;-78
2023/01/27 12:47:19;;;;;;;1.08;0.85;;;-0.30;99.90;;;;;;8222118;28;20085;-78
2023/01/27 12:51:35;;;;;;;1.30;0.93;;;-0.30;99.90;;;;;;8221370;28;20035;-78
2023/01/27 12:55:40;;;;;;;2.55;1.45;;;-0.10;99.90;;;;;;8217756;28;20023;-79
2023/01/27 12:59:49;;;;;;;3.50;1.15;;;0.00;99.90;;;;;;8211506;28;20042;-78
2023/01/27 13:04:08;;;;;;;3.35;2.13;;;-0.10;99.90;;;;;;8206443;28;20047;-78
2023/01/27 13:08:16;;;;;;;2.63;1.35;;;-0.30;99.90;;;;;;8203849;28;20032;-79
2023/01/27 13:12:19;;;;;;;4.85;2.20;;;-0.30;99.90;;;;;;8230370;28;20126;-78
2023/01/27 13:16:29;;;;;;;6.00;2.33;;;-0.40;99.90;;;;;;8225653;28;20030;-78
2023/01/27 13:20:38;;;;;;;1.00;0.95;;;-0.30;99.90;;;;;;8235000;28;20384;-79
2023/01/27 13:24:41;;;;;;;2.47;2.17;;;-0.20;99.90;;;;;;8225355;28;20031;-79
2023/01/27 13:29:19;;;;;;;5.45;1.92;;;-0.10;99.90;;;;;;8231836;28;20699;-78
2023/01/27 13:33:26;;;;;;;12.43;3.22;;;0.20;99.90;;;;;;8226799;28;20046;-79
2023/01/27 13:37:51;;;;;;;3.95;2.13;;;0.20;99.90;;;;;;8229815;28;20101;-78
2023/01/27 13:42:03;;;;;;;1.65;0.82;;;0.30;99.90;;;;;;8226153;28;20035;-79
2023/01/27 13:46:38;;;;;;;8.57;2.53;;;0.20;99.90;;;;;;8239240;28;20025;-79
2023/01/27 13:50:57;;;;;;;6.03;2.95;;;0.10;99.90;;;;;;8173416;28;20031;-79
2023/01/27 13:54:57;;;;;;;6.13;2.88;;;0.10;99.90;;;;;;8229870;28;20137;-79
2023/01/27 13:59:22;;;;;;;5.53;2.42;;;0.20;99.90;;;;;;8210613;28;20032;-79
2023/01/27 14:03:45;;;;;;;2.50;0.70;;;0.30;99.90;;;;;;8237420;28;20093;-78
2023/01/27 14:08:09;;;;;;;3.60;2.03;;;0.30;99.90;;;;;;8219326;28;20388;-79
2023/01/27 14:12:43;;;;;;;4.28;2.80;;;0.50;99.90;;;;;;8229040;28;20524;-79
2023/01/27 14:17:09;;;;;;;4.18;1.88;;;0.50;99.90;;;;;;8225425;28;20073;-79
2023/01/27 14:21:28;;;;;;;1.65;1.30;;;0.40;99.90;;;;;;8232048;28;20480;-78
2023/01/27 14:25:34;;;;;;;2.35;1.00;;;0.30;99.90;;;;;;8216284;28;20502;-79
2023/01/27 14:29:46;;;;;;;5.60;2.58;;;0.20;99.90;;;;;;8228169;28;20023;-79
2023/01/27 14:34:18;;;;;;;1.67;1.42;;;0.40;99.90;;;;;;8230754;28;20097;-79
2023/01/27 14:38:32;;;;;;;7.13;4.03;;;0.40;99.90;;;;;;8235016;28;20045;-79
2023/01/27 14:42:49;;;;;;;5.88;2.13;;;0.30;99.90;;;;;;8223953;28;20089;-79
2023/01/27 14:47:11;;;;;;;2.92;1.88;;;0.30;99.90;;;;;;8228370;28;20045;-79
2023/01/27 14:51:42;;;;;;;3.05;1.75;;;0.10;99.90;;;;;;8223503;28;20050;-79
2023/01/27 14:55:50;;;;;;;3.97;2.22;;;0.10;99.90;;;;;;8218921;28;20050;-79
2023/01/27 15:00:23;;;;;;;2.30;1.23;;;0.10;99.90;;;;;;8213011;28;20609;-78
2023/01/27 15:04:36;;;;;;;4.28;2.00;;;-0.10;99.90;;;;;;8216018;28;20050;-79
2023/01/27 15:08:46;;;;;;;1.98;1.08;;;-0.30;99.90;;;;;;8214682;28;20029;-79
2023/01/27 15:13:12;;;;;;;8.48;2.50;;;-0.30;99.90;;;;;;8218011;28;20022;-79
2023/01/27 15:17:44;;;;;;;5.20;2.72;;;-0.40;99.90;;;;;;8226497;28;20100;-79
2023/01/27 15:22:29;;;;;;;7.68;2.08;;;-0.50;99.90;;;;;;8226328;28;20120;-79
2023/01/27 15:26:31;;;;;;;2.10;1.50;;;-0.60;99.90;;;;;;8222240;28;20030;-79
2023/01/27 15:30:36;;;;;;;4.28;1.75;;;-0.60;99.90;;;;;;8213621;28;20483;-78
2023/01/27 15:34:36;;;;;;;5.28;3.35;;;-0.70;99.90;;;;;;8216501;28;20030;-78
2023/01/27 15:38:37;;;;;;;5.55;1.73;;;-0.70;99.90;;;;;;8239794;28;20019;-78
2023/01/27 15:42:51;;;;;;;3.17;1.63;;;-0.80;99.90;;;;;;8226155;28;20399;-78
2023/01/27 15:46:54;;;;;;;3.65;1.48;;;-0.80;99.90;;;;;;8226065;28;20383;-78
2023/01/27 15:51:01;;;;;;;2.33;1.50;;;-0.80;99.90;;;;;;8210787;28;20082;-78
2023/01/27 15:55:04;;;;;;;4.05;1.30;;;-0.70;99.90;;;;;;8210288;28;20027;-78
2023/01/27 15:59:13;;;;;;;3.85;2.33;;;-0.70;99.90;;;;;;8204080;28;20023;-78
2023/01/27 16:03:26;;;;;;;2.60;0.95;;;-0.70;99.90;;;;;;8261559;22;20064;-82
2023/01/27 16:07:34;;;;;;;3.15;2.08;;;-0.80;99.90;;;;;;8303839;28;20505;-80
2023/01/27 16:11:35;;;;;;;7.05;2.92;;;-0.80;99.90;;;;;;8316620;28;20030;-81
2023/01/27 16:15:37;;;;;;;5.22;3.17;;;-0.90;99.90;;;;;;8302916;28;20021;-81
2023/01/27 16:19:46;;;;;;;3.08;2.13;;;-0.90;99.90;;;;;;8321123;28;20075;-81
2023/01/27 16:24:02;;;;;;;2.00;0.83;;;-0.90;99.90;;;;;;8324970;28;20290;-81
2023/01/27 16:28:11;;;;;;;4.28;2.05;;;-0.90;99.90;;;;;;8305363;28;20035;-81
2023/01/27 16:32:18;;;;;;;1.42;1.30;;;-0.90;99.90;;;;;;8311169;28;20036;-80
2023/01/27 16:36:28;;;;;;;5.55;1.92;;;-0.90;99.90;;;;;;8307557;28;20026;-81
2023/01/27 16:40:31;;;;;;;2.88;2.20;;;-0.90;99.90;;;;;;8308568;28;20033;-81
2023/01/27 16:44:40;;;;;;;11.68;4.22;;;-0.90;99.90;;;;;;8302851;28;20520;-83
2023/01/27 16:48:45;;;;;;;6.97;3.37;;;-1.00;99.90;;;;;;8301779;28;20116;-81
2023/01/27 16:52:46;;;;;;;0.88;0.75;;;-1.00;99.90;;;;;;8298347;28;20113;-81
2023/01/27 16:56:52;;;;;;;6.65;3.65;;;-1.00;99.90;;;;;;8302524;28;20029;-81
2023/01/27 17:00:53;;;;;;;5.40;2.55;;;-1.00;99.90;;;;;;8313411;28;20108;-79
2023/01/27 17:04:57;;;;;;;4.90;2.60;;;-1.00;99.90;;;;;;8305659;28;20041;-79
2023/01/27 17:08:58;;;;;;;11.88;3.38;;;-0.90;99.90;;;;;;8303904;28;20057;-80
2023/01/27 17:12:59;;;;;;;3.08;1.65;;;-1.00;99.90;;;;;;8293801;28;20022;-80
2023/01/27 17:17:04;;;;;;;4.07;2.47;;;-0.90;99.90;;;;;;8327341;28;20389;-80
2023/01/27 17:21:05;;;;;;;2.38;1.60;;;-1.00;99.90;;;;;;8306003;28;20026;-80
2023/01/27 17:25:13;;;;;;;7.68;2.65;;;-1.00;99.90;;;;;;8326315;28;20084;-80
2023/01/27 17:29:18;;;;;;;4.40;2.60;;;-1.00;99.90;;;;;;8319574;28;20037;-79
2023/01/27 17:33:20;;;;;;;6.43;3.45;;;-1.00;99.90;;;;;;8322945;28;20515;-79
2023/01/27 17:37:22;;;;;;;6.75;2.97;;;-0.90;99.90;;;;;;8323089;28;20034;-79
2023/01/27 17:41:36;;;;;;;9.10;3.88;;;-1.00;99.90;;;;;;8318627;28;20678;-79
2023/01/27 17:45:36;;;;;;;0.15;0.15;;;-1.00;99.90;;;;;;8334406;28;20116;-79
2023/01/27 17:49:39;;;;;;;5.20;2.50;;;-1.00;99.90;;;;;;8341045;28;20025;-79
2023/01/27 17:53:41;;;;;;;8.65;1.90;;;-1.00;99.90;;;;;;8316031;28;20052;-79
2023/01/27 17:57:43;;;;;;;7.32;3.75;;;-1.00;99.90;;;;;;8321117;28;20116;-79
2023/01/27 18:01:46;;;;;;;1.30;0.93;;;-1.00;99.90;;;;;;8321215;28;20025;-79
2023/01/27 18:05:49;;;;;;;10.32;4.45;;;-1.00;99.90;;;;;;8316911;28;20032;-80
2023/01/27 18:09:52;;;;;;;6.47;2.65;;;-0.90;99.90;;;;;;8336662;28;20053;-79
2023/01/27 18:13:54;;;;;;;2.78;1.33;;;-1.00;99.90;;;;;;8334060;28;20025;-80
2023/01/27 18:18:00;;;;;;;6.22;3.97;;;-0.90;99.90;;;;;;8315191;28;20022;-79
2023/01/27 18:22:15;;;;;;;2.53;1.60;;;-1.00;99.90;;;;;;8309889;28;20017;-79
2023/01/27 18:26:33;;;;;;;6.05;3.15;;;-0.90;99.90;;;;;;8312178;28;20494;-79
2023/01/27 18:30:33;;;;;;;10.13;4.82;;;-0.90;99.90;;;;;;8296666;28;20079;-79
2023/01/27 18:34:48;;;;;;;4.32;2.78;;;-0.90;99.90;;;;;;8315422;28;20029;-79
2023/01/27 18:38:49;;;;;;;0.93;0.90;;;-0.90;99.90;;;;;;8313236;28;20033;-79
2023/01/27 18:42:54;;;;;;;11.27;5.28;;;-1.00;99.90;;;;;;8323623;28;20463;-79
2023/01/27 18:47:11;;;;;;;3.53;1.67;;;-1.00;99.90;;;;;;8310295;28;20033;-77
2023/01/27 18:51:14;;;;;;;2.92;1.08;;;-0.90;99.90;;;;;;8322561;28;20030;-78
2023/01/27 18:55:18;;;;;;;2.05;1.58;;;-1.00;99.90;;;;;;8303898;28;20169;-78
2023/01/27 18:59:19;;;;;;;11.20;5.22;;;-1.00;99.90;;;;;;8314314;28;20040;-79
2023/01/27 19:03:22;;;;;;;10.95;6.63;;;-0.90;99.90;;;;;;8319057;28;20041;-79
2023/01/27 19:07:23;;;;;;;7.03;3.90;;;-1.00;99.90;;;;;;8301473;28;20513;-78
2023/01/27 19:11:23;;;;;;;4.25;2.08;;;-0.90;99.90;;;;;;8313393;28;20033;-78
2023/01/27 19:15:30;;;;;;;9.38;4.38;;;-1.00;99.90;;;;;;8301468;28;20405;-78
2023/01/27 19:19:30;;;;;;;8.30;3.70;;;-1.00;99.90;;;;;;8306564;28;20039;-78
2023/01/27 19:23:31;;;;;;;8.05;3.85;;;-1.00;99.90;;;;;;8329739;28;20021;-79
2023/01/27 19:27:32;;;;;;;13.73;5.10;;;-1.00;99.90;;;;;;8322558;28;20030;-78
2023/01/27 19:31:32;;;;;;;5.70;2.97;;;-1.10;99.90;;;;;;8319671;28;20021;-79
2023/01/27 19:35:33;;;;;;;5.47;2.72;;;-1.10;99.90;;;;;;8332480;28;20096;-79
2023/01/27 19:39:33;;;;;;;10.60;4.40;;;-1.10;99.90;;;;;;8321212;28;20021;-79
2023/01/27 19:43:34;;;;;;;11.48;6.05;;;-1.10;99.90;;;;;;8306907;28;20036;-79
2023/01/27 19:47:34;;;;;;;8.10;4.45;;;-1.20;99.90;;;;;;8315681;28;20078;-78
2023/01/27 19:51:35;;;;;;;7.70;4.53;;;-1.10;99.90;;;;;;8302039;28;20022;-78
2023/01/27 19:55:35;;;;;;;5.68;3.28;;;-1.20;99.90;;;;;;8310946;28;20526;-79
2023/01/27 19:59:36;;;;;;;5.85;1.40;;;-1.20;99.90;;;;;;8332268;28;20060;-77
2023/01/27 20:03:36;;;;;;;5.38;3.75;;;-1.10;99.90;;;;;;8305331;28;20032;-77
2023/01/27 20:07:37;;;;;;;8.40;3.67;;;-1.10;99.90;;;;;;8325334;28;20612;-79
2023/01/27 20:11:42;;;;;;;9.32;4.35;;;-1.20;99.90;;;;;;8317883;28;20541;-79
2023/01/27 20:15:44;;;;;;;3.90;2.15;;;-1.20;99.90;;;;;;8309572;28;20029;-78
2023/01/27 20:19:46;;;;;;;8.23;5.05;;;-1.10;99.90;;;;;;8316085;28;20033;-79
2023/01/27 20:23:47;;;;;;;8.57;5.18;;;-1.10;99.90;;;;;;8307180;28;20099;-77
2023/01/27 20:27:58;;;;;;;3.67;2.15;;;-1.10;99.90;;;;;;8331524;28;20409;-79
2023/01/27 20:31:59;;;;;;;4.82;3.13;;;-1.20;99.90;;;;;;8312277;28;20124;-77
2023/01/27 20:36:04;;;;;;;7.38;3.92;;;-1.20;99.90;;;;;;8320251;28;20508;-78
2023/01/27 20:40:05;;;;;;;2.63;1.85;;;-1.20;99.90;;;;;;8315851;28;20520;-79
2023/01/27 20:44:09;;;;;;;6.68;3.88;;;-1.20;99.90;;;;;;8336088;28;20112;-79
2023/01/27 20:48:10;;;;;;;5.18;3.90;;;-1.20;99.90;;;;;;8322817;28;20034;-78
2023/01/27 20:52:10;;;;;;;8.93;4.93;;;-1.20;99.90;;;;;;8318616;28;20018;-79
2023/01/27 20:56:17;;;;;;;6.32;3.70;;;-1.20;99.90;;;;;;8317994;28;20025;-78
2023/01/27 21:00:19;;;;;;;6.75;3.40;;;-1.20;99.90;;;;;;8328988;28;20115;-78
2023/01/27 21:04:20;;;;;;;11.13;4.65;;;-1.20;99.90;;;;;;8314261;28;20033;-79
2023/01/27 21:08:20;;;;;;;0.73;0.73;;;-1.20;99.90;;;;;;8302850;28;20622;-78
2023/01/27 21:12:21;;;;;;;12.80;4.25;;;-1.20;99.90;;;;;;8307844;28;20037;-78
2023/01/27 21:16:22;;;;;;;8.57;4.10;;;-1.20;99.90;;;;;;8332461;28;20191;-78
2023/01/27 21:20:22;;;;;;;13.75;5.63;;;-1.10;99.90;;;;;;8324514;28;20056;-79
2023/01/27 21:24:23;;;;;;;8.00;3.65;;;-1.10;99.90;;;;;;8316475;28;20079;-77
2023/01/27 21:28:23;;;;;;;2.47;0.98;;;-1.10;99.90;;;;;;8311839;28;20117;-79
2023/01/27 21:32:24;;;;;;;2.35;1.38;;;-1.00;99.90;;;;;;8304085;28;20034;-77
2023/01/27 21:36:25;;;;;;;7.97;4.85;;;-1.00;99.90;;;;;;8307136;28;20409;-78